createdAt,value
2023-03-01T00:01:12.901Z,2.60
2023-03-01T00:03:40.843Z,2.50
2023-03-01T00:06:08.794Z,2.50
2023-03-01T00:08:39.202Z,2.10
2023-03-01T00:11:08.613Z,1.80
2023-03-01T00:13:37.046Z,1.60
2023-03-01T00:16:05.308Z,1.40
2023-03-01T00:18:33.750Z,1.30
2023-03-01T00:21:02.052Z,1.20
2023-03-01T00:23:30.191Z,1.20
2023-03-01T00:25:59.758Z,1.20
2023-03-01T00:28:27.783Z,1.10
2023-03-01T00:30:56.870Z,1.00
2023-03-01T00:33:25.049Z,1.10
2023-03-01T00:35:53.095Z,1.30
2023-03-01T00:38:21.446Z,1.50
2023-03-01T00:40:49.461Z,1.70
2023-03-01T00:43:18.929Z,1.90
2023-03-01T00:45:46.983Z,2.00
2023-03-01T00:48:15.067Z,2.10
2023-03-01T00:50:43.001Z,2.20
2023-03-01T00:53:10.982Z,2.20
2023-03-01T00:55:39.064Z,2.30
2023-03-01T00:58:07.668Z,2.30
2023-03-01T01:00:37.128Z,2.40
2023-03-01T01:03:05.358Z,2.50
2023-03-01T01:05:36.143Z,2.50
2023-03-01T01:08:04.164Z,2.40
2023-03-01T01:10:32.268Z,2.40
2023-03-01T01:13:00.268Z,2.30
2023-03-01T01:15:28.306Z,2.30
2023-03-01T01:17:57.796Z,2.30
2023-03-01T01:20:25.848Z,2.30
2023-03-01T01:22:53.975Z,2.30
2023-03-01T01:25:22.890Z,2.30
2023-03-01T01:27:50.854Z,2.30
2023-03-01T01:30:19.099Z,2.20
2023-03-01T01:32:47.771Z,2.20
2023-03-01T01:35:17.248Z,2.30
2023-03-01T01:37:45.628Z,2.30
2023-03-01T01:40:14.298Z,2.30
2023-03-01T01:42:42.279Z,2.30
2023-03-01T01:45:31.245Z,2.30
2023-03-01T01:48:01.201Z,2.30
2023-03-01T01:50:38.669Z,2.40
2023-03-01T01:53:07.971Z,2.40
2023-03-01T01:55:38.140Z,2.40
2023-03-01T01:58:07.959Z,2.40
2023-03-01T02:00:36.578Z,2.40
2023-03-01T02:03:06.913Z,2.40
2023-03-01T02:05:38.762Z,2.40
2023-03-01T02:08:07.628Z,2.40
2023-03-01T02:10:36.821Z,2.40
2023-03-01T02:13:05.334Z,2.40
2023-03-01T02:15:34.782Z,2.40
2023-03-01T02:18:03.318Z,2.40
2023-03-01T02:20:34.278Z,2.40
2023-03-01T02:23:04.829Z,2.30
2023-03-01T02:25:37.883Z,2.20
2023-03-01T02:28:10.599Z,2.20
2023-03-01T02:31:00.143Z,2.10
2023-03-01T02:33:27.328Z,2.00
2023-03-01T02:35:56.510Z,1.80
2023-03-01T02:38:25.171Z,1.70
2023-03-01T02:40:53.390Z,1.70
2023-03-01T02:43:23.080Z,1.80
2023-03-01T02:45:53.788Z,1.70
2023-03-01T02:48:22.234Z,1.80
2023-03-01T02:50:58.030Z,1.80
2023-03-01T02:53:29.810Z,1.70
2023-03-01T02:55:57.925Z,1.70
2023-03-01T02:58:26.156Z,1.80
2023-03-01T03:00:56.115Z,1.80
2023-03-01T03:03:24.373Z,1.90
2023-03-01T03:05:54.192Z,2.00
2023-03-01T03:08:24.969Z,2.00
2023-03-01T03:10:54.011Z,2.00
2023-03-01T03:13:23.044Z,2.10
2023-03-01T03:15:52.727Z,2.10
2023-03-01T03:18:23.431Z,2.20
2023-03-01T03:20:53.734Z,2.00
2023-03-01T03:23:22.177Z,1.90
2023-03-01T03:25:50.801Z,1.70
2023-03-01T03:28:19.462Z,1.80
2023-03-01T03:30:47.871Z,1.80
2023-03-01T03:33:16.005Z,1.90
2023-03-01T03:35:46.465Z,1.90
2023-03-01T03:38:18.403Z,1.90
2023-03-01T03:40:47.914Z,1.90
2023-03-01T03:43:16.839Z,1.90
2023-03-01T03:45:46.460Z,2.00
2023-03-01T03:48:14.791Z,2.20
2023-03-01T03:50:42.913Z,1.90
2023-03-01T03:53:12.943Z,1.80
2023-03-01T03:55:41.348Z,1.90
2023-03-01T03:58:11.074Z,1.90
2023-03-01T04:00:40.208Z,1.90
2023-03-01T04:03:08.496Z,2.00
2023-03-01T04:05:37.278Z,1.90
2023-03-01T04:08:08.214Z,1.90
2023-03-01T04:10:42.045Z,1.90
2023-03-01T04:13:11.932Z,1.80
2023-03-01T04:15:40.302Z,1.60
2023-03-01T04:18:09.058Z,1.50
2023-03-01T04:20:37.740Z,1.50
2023-03-01T04:23:14.138Z,1.60
2023-03-01T04:25:43.965Z,1.60
2023-03-01T04:28:12.244Z,1.60
2023-03-01T04:30:40.816Z,1.60
2023-03-01T04:33:09.849Z,1.60
2023-03-01T04:35:38.409Z,1.60
2023-03-01T04:38:07.235Z,1.60
2023-03-01T04:40:35.945Z,1.60
2023-03-01T04:43:05.869Z,1.70
2023-03-01T04:45:35.595Z,1.70
2023-03-01T04:48:03.955Z,1.70
2023-03-01T04:50:32.143Z,1.80
2023-03-01T04:53:00.248Z,1.70
2023-03-01T04:55:28.510Z,1.70
2023-03-01T04:57:56.809Z,1.70
2023-03-01T05:00:26.416Z,1.70
2023-03-01T05:02:56.396Z,1.70
2023-03-01T05:05:26.790Z,1.80
2023-03-01T05:07:56.046Z,1.80
2023-03-01T05:10:24.577Z,1.80
2023-03-01T05:12:54.063Z,1.80
2023-03-01T05:15:23.825Z,1.80
2023-03-01T05:17:53.334Z,1.90
2023-03-01T05:20:24.926Z,1.90
2023-03-01T05:22:53.384Z,1.80
2023-03-01T05:25:22.472Z,1.80
2023-03-01T05:27:50.546Z,1.80
2023-03-01T05:30:19.024Z,1.80
2023-03-01T05:32:48.036Z,1.80
2023-03-01T05:35:19.161Z,1.80
2023-03-01T05:37:48.618Z,1.70
2023-03-01T05:40:17.562Z,1.50
2023-03-01T05:42:45.904Z,1.40
2023-03-01T05:45:15.098Z,1.30
2023-03-01T05:47:45.371Z,1.30
2023-03-01T05:50:14.678Z,1.30
2023-03-01T05:52:44.189Z,1.30
2023-03-01T05:55:12.326Z,1.40
2023-03-01T05:57:41.004Z,1.40
2023-03-01T06:00:10.281Z,1.50
2023-03-01T06:02:40.983Z,1.60
2023-03-01T06:05:10.492Z,1.60
2023-03-01T06:07:41.848Z,1.60
2023-03-01T06:10:13.145Z,1.70
2023-03-01T06:12:41.965Z,1.70
2023-03-01T06:15:11.317Z,1.70
2023-03-01T06:17:40.000Z,1.60
2023-03-01T06:20:09.383Z,1.70
2023-03-01T06:22:37.470Z,1.70
2023-03-01T06:25:06.175Z,1.80
2023-03-01T06:27:35.562Z,1.80
2023-03-01T06:30:04.192Z,1.80
2023-03-01T06:32:32.911Z,1.80
2023-03-01T06:35:01.080Z,1.80
2023-03-01T06:37:29.384Z,1.80
2023-03-01T06:39:57.417Z,1.80
2023-03-01T06:42:25.559Z,1.60
2023-03-01T06:44:54.964Z,1.90
2023-03-01T06:47:23.137Z,1.80
2023-03-01T06:49:51.155Z,1.90
2023-03-01T06:52:19.323Z,1.90
2023-03-01T06:54:47.348Z,1.90
2023-03-01T06:57:15.402Z,2.00
2023-03-01T06:59:43.465Z,2.00
2023-03-01T07:02:13.620Z,2.10
2023-03-01T07:04:46.028Z,2.10
2023-03-01T07:07:16.621Z,2.00
2023-03-01T07:09:44.696Z,1.90
2023-03-01T07:12:12.863Z,1.80
2023-03-01T07:14:40.888Z,1.80
2023-03-01T07:17:09.011Z,1.80
2023-03-01T07:19:38.375Z,1.80
2023-03-01T07:22:08.688Z,1.80
2023-03-01T07:24:36.917Z,1.80
2023-03-01T07:27:05.055Z,2.00
2023-03-01T07:29:33.136Z,2.10
2023-03-01T07:32:01.229Z,2.10
2023-03-01T07:34:29.502Z,2.10
2023-03-01T07:36:58.917Z,2.10
2023-03-01T07:39:26.949Z,2.10
2023-03-01T07:41:55.520Z,2.20
2023-03-01T07:44:27.083Z,2.40
2023-03-01T07:46:57.222Z,2.40
2023-03-01T07:49:27.304Z,2.50
2023-03-01T07:51:55.387Z,2.60
2023-03-01T07:54:24.751Z,2.70
2023-03-01T07:56:53.146Z,2.70
2023-03-01T07:59:24.678Z,2.70
2023-03-01T08:01:52.775Z,2.80
2023-03-01T08:04:21.033Z,2.90
2023-03-01T08:06:49.125Z,3.00
2023-03-01T08:09:18.223Z,3.10
2023-03-01T08:11:47.837Z,3.10
2023-03-01T08:14:15.920Z,3.30
2023-03-01T08:16:44.069Z,3.50
2023-03-01T08:19:12.799Z,3.70
2023-03-01T08:21:40.958Z,3.80
2023-03-01T08:24:11.124Z,3.90
2023-03-01T08:26:39.393Z,3.90
2023-03-01T08:29:08.937Z,3.80
2023-03-01T08:31:38.505Z,3.90
2023-03-01T08:34:07.245Z,4.10
2023-03-01T08:36:38.030Z,4.20
2023-03-01T08:39:06.831Z,4.30
2023-03-01T08:41:35.018Z,4.30
2023-03-01T08:44:04.636Z,4.30
2023-03-01T08:46:35.220Z,4.20
2023-03-01T08:49:05.419Z,4.10
2023-03-01T08:51:37.727Z,4.20
2023-03-01T08:54:06.288Z,4.60
2023-03-01T08:56:34.696Z,4.70
2023-03-01T08:59:02.729Z,4.60
2023-03-01T09:01:30.744Z,4.60
2023-03-01T09:04:00.148Z,4.70
2023-03-01T09:06:28.312Z,4.80
2023-03-01T09:08:56.910Z,5.00
2023-03-01T09:11:24.944Z,5.10
2023-03-01T09:13:52.947Z,5.30
2023-03-01T09:16:21.677Z,5.50
2023-03-01T09:18:51.115Z,5.70
2023-03-01T09:21:37.254Z,5.60
2023-03-01T09:24:07.896Z,5.70
2023-03-01T09:26:36.106Z,5.80
2023-03-01T09:29:04.411Z,6.00
2023-03-01T09:31:32.379Z,6.10
2023-03-01T09:34:00.461Z,6.10
2023-03-01T09:36:30.336Z,6.30
2023-03-01T09:39:00.185Z,6.30
2023-03-01T09:41:46.672Z,6.20
2023-03-01T09:44:20.800Z,6.10
2023-03-01T09:46:49.015Z,6.20
2023-03-01T09:49:20.629Z,6.30
2023-03-01T09:51:56.856Z,6.40
2023-03-01T09:54:24.974Z,6.50
2023-03-01T09:57:02.272Z,6.70
2023-03-01T09:59:34.819Z,6.90
2023-03-01T10:02:06.188Z,6.90
2023-03-01T10:04:42.495Z,7.00
2023-03-01T10:07:20.462Z,7.20
2023-03-01T10:09:49.074Z,7.40
2023-03-01T10:12:19.468Z,7.50
2023-03-01T10:14:52.164Z,7.40
2023-03-01T10:17:26.308Z,7.40
2023-03-01T10:19:54.359Z,7.50
2023-03-01T10:22:24.688Z,7.50
2023-03-01T10:24:53.880Z,7.60
2023-03-01T10:27:24.374Z,7.70
2023-03-01T10:29:57.141Z,7.80
2023-03-01T10:32:25.434Z,7.90
2023-03-01T10:34:53.622Z,8.10
2023-03-01T10:37:28.127Z,8.10
2023-03-01T10:39:57.942Z,8.20
2023-03-01T10:42:29.202Z,8.30
2023-03-01T10:44:59.633Z,8.40
2023-03-01T10:47:28.793Z,8.40
2023-03-01T10:50:07.614Z,8.40
2023-03-01T10:52:37.943Z,8.40
2023-03-01T10:55:25.160Z,8.50
2023-03-01T10:58:07.862Z,8.50
2023-03-01T11:00:47.559Z,8.50
2023-03-01T11:03:21.224Z,8.60
2023-03-01T11:05:59.120Z,8.60
2023-03-01T11:08:36.901Z,8.70
2023-03-01T11:11:14.331Z,8.70
2023-03-01T11:13:51.778Z,8.90
2023-03-01T11:16:26.332Z,8.90
2023-03-01T11:18:59.982Z,9.00
2023-03-01T11:21:29.051Z,9.00
2023-03-01T11:24:00.248Z,9.10
2023-03-01T11:26:30.577Z,9.20
2023-03-01T11:29:01.215Z,9.40
2023-03-01T11:31:31.343Z,9.70
2023-03-01T11:34:01.642Z,9.80
2023-03-01T11:36:33.037Z,9.70
2023-03-01T11:39:05.511Z,9.70
2023-03-01T11:41:35.777Z,9.70
2023-03-01T11:44:04.777Z,9.90
2023-03-01T11:46:40.245Z,9.90
2023-03-01T11:49:18.899Z,9.90
2023-03-01T11:51:52.167Z,9.80
2023-03-01T11:54:26.343Z,9.80
2023-03-01T11:56:56.917Z,9.70
2023-03-01T11:59:58.172Z,9.70
2023-03-01T12:02:39.156Z,9.80
2023-03-01T12:05:22.646Z,9.80
2023-03-01T12:07:55.512Z,10.00
2023-03-01T12:10:30.947Z,10.20
2023-03-01T12:13:11.611Z,10.30
2023-03-01T12:15:53.675Z,10.50
2023-03-01T12:18:30.442Z,10.60
2023-03-01T12:21:04.834Z,10.50
2023-03-01T12:23:50.699Z,10.40
2023-03-01T12:26:32.621Z,10.40
2023-03-01T12:29:24.785Z,10.40
2023-03-01T12:32:07.812Z,10.30
2023-03-01T12:34:47.257Z,10.50
2023-03-01T12:37:22.503Z,10.50
2023-03-01T12:39:58.914Z,10.40
2023-03-01T12:42:32.836Z,10.40
2023-03-01T12:45:14.585Z,10.60
2023-03-01T12:47:49.124Z,10.90
2023-03-01T12:50:20.787Z,11.10
2023-03-01T12:52:51.676Z,11.10
2023-03-01T12:55:24.419Z,11.10
2023-03-01T12:57:58.864Z,11.20
2023-03-01T13:00:30.005Z,11.10
2023-03-01T13:03:02.025Z,11.10
2023-03-01T13:05:36.352Z,11.20
2023-03-01T13:08:10.406Z,11.50
2023-03-01T13:10:44.113Z,11.60
2023-03-01T13:13:21.307Z,11.60
2023-03-01T13:15:50.194Z,11.60
2023-03-01T13:18:32.000Z,11.70
2023-03-01T13:21:00.968Z,11.90
2023-03-01T13:23:30.386Z,11.90
2023-03-01T13:26:16.453Z,12.10
2023-03-01T13:28:51.553Z,12.30
2023-03-01T13:31:38.378Z,12.20
2023-03-01T13:34:09.919Z,12.10
2023-03-01T13:36:48.450Z,11.90
2023-03-01T13:39:32.957Z,11.80
2023-03-01T13:42:02.029Z,11.70
2023-03-01T13:44:34.577Z,11.60
2023-03-01T13:47:09.450Z,11.60
2023-03-01T13:49:46.646Z,11.80
2023-03-01T13:52:29.590Z,11.90
2023-03-01T13:54:58.664Z,12.10
2023-03-01T13:57:28.857Z,12.20
2023-03-01T13:59:58.254Z,12.30
2023-03-01T14:02:26.245Z,12.30
2023-03-01T14:05:00.991Z,12.00
2023-03-01T14:07:31.384Z,12.00
2023-03-01T14:10:01.282Z,12.00
2023-03-01T14:12:39.113Z,12.20
2023-03-01T14:15:10.865Z,12.40
2023-03-01T14:17:49.250Z,12.20
2023-03-01T14:20:19.845Z,12.40
2023-03-01T14:22:49.573Z,12.60
2023-03-01T14:25:23.309Z,12.60
2023-03-01T14:27:59.377Z,12.50
2023-03-01T14:30:29.852Z,12.60
2023-03-01T14:32:58.762Z,12.50
2023-03-01T14:35:28.122Z,12.50
2023-03-01T14:37:56.475Z,12.50
2023-03-01T14:40:26.577Z,12.60
2023-03-01T14:42:55.976Z,12.60
2023-03-01T14:45:25.211Z,12.40
2023-03-01T14:47:55.222Z,12.40
2023-03-01T14:50:25.582Z,12.30
2023-03-01T14:52:57.876Z,12.40
2023-03-01T14:55:28.816Z,12.70
2023-03-01T14:57:56.783Z,12.50
2023-03-01T15:00:26.179Z,12.40
2023-03-01T15:02:56.972Z,12.30
2023-03-01T15:05:27.667Z,12.20
2023-03-01T15:07:56.107Z,12.20
2023-03-01T15:10:25.277Z,12.30
2023-03-01T15:12:53.980Z,12.20
2023-03-01T15:15:23.731Z,12.20
2023-03-01T15:17:56.119Z,12.10
2023-03-01T15:20:28.431Z,11.90
2023-03-01T15:22:56.660Z,11.70
2023-03-01T15:25:27.063Z,11.80
2023-03-01T15:27:55.891Z,11.80
2023-03-01T15:30:25.116Z,11.80
2023-03-01T15:33:07.905Z,11.60
2023-03-01T15:35:41.873Z,11.60
2023-03-01T15:38:26.134Z,11.50
2023-03-01T15:40:54.808Z,11.50
2023-03-01T15:43:39.319Z,11.50
2023-03-01T15:46:07.426Z,11.50
2023-03-01T15:48:35.457Z,11.40
2023-03-01T15:51:05.031Z,11.20
2023-03-01T15:53:33.021Z,11.20
2023-03-01T15:56:01.141Z,11.00
2023-03-01T15:58:29.108Z,10.80
2023-03-01T16:01:01.226Z,10.60
2023-03-01T16:03:30.778Z,10.50
2023-03-01T16:05:58.891Z,10.60
2023-03-01T16:08:31.091Z,10.60
2023-03-01T16:10:59.102Z,10.50
2023-03-01T16:13:29.406Z,10.50
2023-03-01T16:15:58.010Z,10.40
2023-03-01T16:18:26.012Z,10.20
2023-03-01T16:20:55.040Z,10.10
2023-03-01T16:23:26.039Z,9.80
2023-03-01T16:25:55.467Z,9.80
2023-03-01T16:28:23.604Z,9.80
2023-03-01T16:30:51.820Z,9.80
2023-03-01T16:33:29.975Z,9.80
2023-03-01T16:36:03.074Z,9.80
2023-03-01T16:38:33.066Z,9.80
2023-03-01T16:41:02.731Z,9.80
2023-03-01T16:43:31.188Z,9.70
2023-03-01T16:45:59.847Z,9.70
2023-03-01T16:48:30.050Z,9.70
2023-03-01T16:51:00.423Z,9.60
2023-03-01T16:53:28.771Z,9.50
2023-03-01T16:55:57.173Z,9.40
2023-03-01T16:58:26.804Z,9.40
2023-03-01T17:00:55.598Z,9.40
2023-03-01T17:03:24.347Z,9.40
2023-03-01T17:05:52.640Z,9.60
2023-03-01T17:08:21.899Z,9.60
2023-03-01T17:10:49.918Z,9.60
2023-03-01T17:13:17.998Z,9.70
2023-03-01T17:15:47.698Z,9.60
2023-03-01T17:18:15.745Z,9.60
2023-03-01T17:20:44.824Z,9.60
2023-03-01T17:23:12.937Z,9.50
2023-03-01T17:25:43.278Z,9.50
2023-03-01T17:28:12.457Z,9.60
2023-03-01T17:30:42.867Z,9.50
2023-03-01T17:33:12.352Z,9.60
2023-03-01T17:35:40.477Z,9.70
2023-03-01T17:38:08.829Z,9.70
2023-03-01T17:40:55.598Z,9.70
2023-03-01T17:43:25.060Z,9.80
2023-03-01T17:45:54.631Z,9.90
2023-03-01T17:48:24.314Z,9.90
2023-03-01T17:50:52.661Z,10.00
2023-03-01T17:53:20.708Z,10.20
2023-03-01T17:55:54.183Z,10.30
2023-03-01T17:58:22.913Z,10.20
2023-03-01T18:00:51.462Z,10.10
2023-03-01T18:03:21.487Z,10.20
2023-03-01T18:05:51.724Z,10.10
2023-03-01T18:08:19.994Z,10.00
2023-03-01T18:10:47.995Z,9.90
2023-03-01T18:13:15.982Z,9.80
2023-03-01T18:15:44.091Z,9.80
2023-03-01T18:18:12.125Z,9.70
2023-03-01T18:20:40.258Z,9.70
2023-03-01T18:23:09.709Z,9.60
2023-03-01T18:25:40.207Z,9.70
2023-03-01T18:28:08.284Z,9.60
2023-03-01T18:30:36.693Z,9.60
2023-03-01T18:33:04.859Z,9.60
2023-03-01T18:35:32.916Z,9.50
2023-03-01T18:38:01.046Z,9.40
2023-03-01T18:40:31.943Z,9.30
2023-03-01T18:42:59.957Z,9.50
2023-03-01T18:45:27.907Z,9.40
2023-03-01T18:47:55.974Z,9.40
2023-03-01T18:50:24.033Z,9.30
2023-03-01T18:52:52.463Z,9.20
2023-03-01T18:55:20.363Z,9.20
2023-03-01T18:57:50.676Z,9.10
2023-03-01T19:00:20.011Z,9.20
2023-03-01T19:02:48.363Z,9.20
2023-03-01T19:05:17.474Z,9.10
2023-03-01T19:07:45.550Z,9.00
2023-03-01T19:10:13.819Z,9.00
2023-03-01T19:12:41.856Z,8.90
2023-03-01T19:15:16.540Z,8.90
2023-03-01T19:17:44.694Z,8.90
2023-03-01T19:20:13.260Z,8.90
2023-03-01T19:22:41.307Z,8.90
2023-03-01T19:25:09.878Z,8.90
2023-03-01T19:27:37.880Z,8.80
2023-03-01T19:30:06.389Z,8.60
2023-03-01T19:32:35.766Z,8.60
2023-03-01T19:35:05.195Z,8.50
2023-03-01T19:37:34.629Z,8.40
2023-03-01T19:40:02.604Z,8.40
2023-03-01T19:42:30.629Z,8.30
2023-03-01T19:44:59.648Z,8.20
2023-03-01T19:47:28.105Z,8.20
2023-03-01T19:49:58.081Z,8.20
2023-03-01T19:52:26.946Z,8.10
2023-03-01T19:55:03.829Z,7.80
2023-03-01T19:57:38.418Z,7.40
2023-03-01T20:00:07.707Z,6.80
2023-03-01T20:02:40.839Z,6.40
2023-03-01T20:05:10.825Z,6.20
2023-03-01T20:07:38.904Z,5.80
2023-03-01T20:10:07.875Z,5.50
2023-03-01T20:12:37.564Z,5.60
2023-03-01T20:15:09.055Z,5.80
2023-03-01T20:17:37.041Z,6.00
2023-03-01T20:20:05.519Z,6.20
2023-03-01T20:22:35.599Z,6.30
2023-03-01T20:25:03.988Z,6.40
2023-03-01T20:27:32.963Z,6.40
2023-03-01T20:30:01.225Z,6.40
2023-03-01T20:32:31.942Z,6.40
2023-03-01T20:35:00.217Z,6.40
2023-03-01T20:37:28.461Z,6.60
2023-03-01T20:39:58.184Z,6.70
2023-03-01T20:42:26.740Z,6.90
2023-03-01T20:44:55.325Z,7.00
2023-03-01T20:47:23.868Z,7.00
2023-03-01T20:49:52.665Z,6.80
2023-03-01T20:52:20.775Z,6.60
2023-03-01T20:54:50.582Z,6.50
2023-03-01T20:57:20.596Z,6.60
2023-03-01T20:59:48.947Z,6.60
2023-03-01T21:02:17.269Z,6.70
2023-03-01T21:04:45.292Z,6.70
2023-03-01T21:07:13.548Z,6.80
2023-03-01T21:09:44.824Z,6.80
2023-03-01T21:12:12.942Z,6.70
2023-03-01T21:14:47.177Z,6.80
2023-03-01T21:17:16.201Z,6.70
2023-03-01T21:19:45.388Z,6.70
2023-03-01T21:22:14.286Z,6.70
2023-03-01T21:24:42.832Z,6.70
2023-03-01T21:27:11.425Z,6.40
2023-03-01T21:29:40.958Z,6.20
2023-03-01T21:32:11.040Z,6.20
2023-03-01T21:34:39.667Z,6.30
2023-03-01T21:37:08.349Z,6.00
2023-03-01T21:39:36.622Z,5.90
2023-03-01T21:42:05.618Z,5.70
2023-03-01T21:44:33.889Z,5.50
2023-03-01T21:47:01.868Z,5.60
2023-03-01T21:49:31.460Z,5.60
2023-03-01T21:51:59.453Z,5.60
2023-03-01T21:54:28.059Z,5.70
2023-03-01T21:56:56.311Z,5.70
2023-03-01T21:59:24.675Z,5.80
2023-03-01T22:01:53.111Z,5.90
2023-03-01T22:04:24.534Z,5.80
2023-03-01T22:06:54.677Z,5.90
2023-03-01T22:09:23.597Z,5.90
2023-03-01T22:11:53.927Z,5.90
2023-03-01T22:14:22.999Z,5.80
2023-03-01T22:16:53.452Z,5.70
2023-03-01T22:19:21.934Z,5.60
2023-03-01T22:21:51.216Z,5.60
2023-03-01T22:24:21.593Z,5.50
2023-03-01T22:26:50.304Z,5.40
2023-03-01T22:29:19.624Z,5.40
2023-03-01T22:31:47.712Z,5.30
2023-03-01T22:34:17.073Z,5.30
2023-03-01T22:36:45.933Z,5.40
2023-03-01T22:39:14.751Z,5.40
2023-03-01T22:41:45.910Z,5.50
2023-03-01T22:44:16.874Z,5.50
2023-03-01T22:46:47.936Z,5.50
2023-03-01T22:49:15.973Z,5.50
2023-03-01T22:51:44.767Z,5.50
2023-03-01T22:54:12.791Z,5.60
2023-03-01T22:56:43.237Z,5.50
2023-03-01T22:59:14.099Z,5.50
2023-03-01T23:01:47.646Z,5.50
2023-03-01T23:04:16.394Z,5.40
2023-03-01T23:06:51.678Z,5.50
2023-03-01T23:09:21.036Z,5.50
2023-03-01T23:11:49.247Z,5.30
2023-03-01T23:14:19.480Z,5.00
2023-03-01T23:16:48.049Z,5.00
2023-03-01T23:19:17.545Z,5.00
2023-03-01T23:21:50.264Z,5.10
2023-03-01T23:24:19.492Z,5.10
2023-03-01T23:26:52.482Z,5.10
2023-03-01T23:29:22.590Z,5.10
2023-03-01T23:31:50.994Z,5.00
2023-03-01T23:34:20.017Z,4.90
2023-03-01T23:36:48.241Z,4.90
2023-03-01T23:39:16.357Z,4.90
2023-03-01T23:41:44.412Z,5.10
2023-03-01T23:44:15.755Z,5.10
2023-03-01T23:46:46.784Z,5.10
2023-03-01T23:49:15.654Z,5.20
2023-03-01T23:51:44.525Z,5.20
2023-03-01T23:54:13.641Z,5.10
2023-03-01T23:56:42.761Z,5.10
2023-03-01T23:59:12.060Z,5.10
